sensor_id;sensor_type;location;lat;lon;timestamp;P1;durP1;ratioP1;P2;durP2;ratioP2
37303;SDS011;23188;51.188;16.374;2023-04-16T00:00:44;24.70;;;16.90;;
37303;SDS011;23188;51.188;16.374;2023-04-16T00:05:07;20.60;;;15.80;;
37303;SDS011;23188;51.188;16.374;2023-04-16T00:09:11;22.30;;;15.00;;
37303;SDS011;23188;51.188;16.374;2023-04-16T00:13:14;23.00;;;14.80;;
37303;SDS011;23188;51.188;16.374;2023-04-16T00:17:18;17.30;;;14.40;;
37303;SDS011;23188;51.188;16.374;2023-04-16T00:21:21;20.50;;;14.30;;
37303;SDS011;23188;51.188;16.374;2023-04-16T00:25:24;22.80;;;15.40;;
37303;SDS011;23188;51.188;16.374;2023-04-16T00:29:28;19.30;;;15.50;;
37303;SDS011;23188;51.188;16.374;2023-04-16T00:33:32;24.30;;;15.00;;
37303;SDS011;23188;51.188;16.374;2023-04-16T00:37:36;25.40;;;17.30;;
37303;SDS011;23188;51.188;16.374;2023-04-16T00:41:49;24.90;;;15.20;;
37303;SDS011;23188;51.188;16.374;2023-04-16T00:45:52;17.10;;;13.40;;
37303;SDS011;23188;51.188;16.374;2023-04-16T00:49:58;20.20;;;15.60;;
37303;SDS011;23188;51.188;16.374;2023-04-16T00:54:02;24.20;;;16.70;;
37303;SDS011;23188;51.188;16.374;2023-04-16T00:58:06;22.20;;;15.40;;
37303;SDS011;23188;51.188;16.374;2023-04-16T01:02:09;19.10;;;15.30;;
37303;SDS011;23188;51.188;16.374;2023-04-16T01:06:13;26.40;;;17.50;;
37303;SDS011;23188;51.188;16.374;2023-04-16T01:10:18;23.70;;;13.90;;
37303;SDS011;23188;51.188;16.374;2023-04-16T01:14:21;21.50;;;14.40;;
37303;SDS011;23188;51.188;16.374;2023-04-16T01:18:25;20.40;;;14.80;;
37303;SDS011;23188;51.188;16.374;2023-04-16T01:22:28;20.60;;;14.60;;
37303;SDS011;23188;51.188;16.374;2023-04-16T01:26:32;24.60;;;17.30;;
37303;SDS011;23188;51.188;16.374;2023-04-16T01:30:36;27.30;;;18.30;;
37303;SDS011;23188;51.188;16.374;2023-04-16T01:34:40;20.00;;;16.90;;
37303;SDS011;23188;51.188;16.374;2023-04-16T01:38:44;28.60;;;20.40;;
37303;SDS011;23188;51.188;16.374;2023-04-16T01:42:48;33.30;;;20.70;;
37303;SDS011;23188;51.188;16.374;2023-04-16T01:46:53;30.60;;;19.20;;
37303;SDS011;23188;51.188;16.374;2023-04-16T01:50:58;20.30;;;17.40;;
37303;SDS011;23188;51.188;16.374;2023-04-16T01:55:02;24.70;;;16.80;;
37303;SDS011;23188;51.188;16.374;2023-04-16T01:59:08;21.80;;;15.70;;
37303;SDS011;23188;51.188;16.374;2023-04-16T02:03:12;21.10;;;16.70;;
37303;SDS011;23188;51.188;16.374;2023-04-16T02:07:15;24.70;;;17.40;;
37303;SDS011;23188;51.188;16.374;2023-04-16T02:11:19;21.00;;;16.90;;
37303;SDS011;23188;51.188;16.374;2023-04-16T02:15:23;20.50;;;12.80;;
37303;SDS011;23188;51.188;16.374;2023-04-16T02:19:27;21.20;;;14.60;;
37303;SDS011;23188;51.188;16.374;2023-04-16T02:23:31;24.90;;;17.60;;
37303;SDS011;23188;51.188;16.374;2023-04-16T02:27:35;15.60;;;12.30;;
37303;SDS011;23188;51.188;16.374;2023-04-16T02:31:40;24.10;;;16.40;;
37303;SDS011;23188;51.188;16.374;2023-04-16T02:35:44;21.70;;;14.20;;
37303;SDS011;23188;51.188;16.374;2023-04-16T02:39:47;17.80;;;13.40;;
37303;SDS011;23188;51.188;16.374;2023-04-16T02:43:51;14.60;;;11.20;;
37303;SDS011;23188;51.188;16.374;2023-04-16T02:47:55;19.10;;;13.20;;
37303;SDS011;23188;51.188;16.374;2023-04-16T02:51:59;15.40;;;12.20;;
37303;SDS011;23188;51.188;16.374;2023-04-16T02:56:02;20.80;;;16.20;;
37303;SDS011;23188;51.188;16.374;2023-04-16T03:00:07;15.20;;;11.10;;
37303;SDS011;23188;51.188;16.374;2023-04-16T03:04:11;16.80;;;12.40;;
37303;SDS011;23188;51.188;16.374;2023-04-16T03:08:15;23.30;;;14.20;;
37303;SDS011;23188;51.188;16.374;2023-04-16T03:12:20;23.90;;;15.10;;
37303;SDS011;23188;51.188;16.374;2023-04-16T03:16:23;16.80;;;14.50;;
37303;SDS011;23188;51.188;16.374;2023-04-16T03:20:27;16.90;;;15.00;;
37303;SDS011;23188;51.188;16.374;2023-04-16T03:24:30;18.40;;;15.30;;
37303;SDS011;23188;51.188;16.374;2023-04-16T03:28:34;19.70;;;16.00;;
37303;SDS011;23188;51.188;16.374;2023-04-16T03:32:37;24.50;;;15.90;;
37303;SDS011;23188;51.188;16.374;2023-04-16T03:36:41;28.30;;;17.70;;
37303;SDS011;23188;51.188;16.374;2023-04-16T03:40:44;16.80;;;13.10;;
37303;SDS011;23188;51.188;16.374;2023-04-16T03:44:48;22.40;;;15.10;;
37303;SDS011;23188;51.188;16.374;2023-04-16T03:48:52;17.80;;;14.00;;
37303;SDS011;23188;51.188;16.374;2023-04-16T03:52:56;17.00;;;12.00;;
37303;SDS011;23188;51.188;16.374;2023-04-16T03:57:00;22.10;;;14.70;;
37303;SDS011;23188;51.188;16.374;2023-04-16T04:01:04;20.60;;;14.90;;
37303;SDS011;23188;51.188;16.374;2023-04-16T04:05:08;21.90;;;15.80;;
37303;SDS011;23188;51.188;16.374;2023-04-16T04:09:12;30.20;;;13.70;;
37303;SDS011;23188;51.188;16.374;2023-04-16T04:13:18;35.20;;;12.80;;
37303;SDS011;23188;51.188;16.374;2023-04-16T04:17:21;16.10;;;9.60;;
37303;SDS011;23188;51.188;16.374;2023-04-16T04:21:28;25.70;;;13.10;;
37303;SDS011;23188;51.188;16.374;2023-04-16T04:25:31;18.80;;;10.20;;
37303;SDS011;23188;51.188;16.374;2023-04-16T04:29:35;31.90;;;13.30;;
37303;SDS011;23188;51.188;16.374;2023-04-16T04:33:38;22.80;;;14.60;;
37303;SDS011;23188;51.188;16.374;2023-04-16T04:37:42;29.70;;;11.90;;
37303;SDS011;23188;51.188;16.374;2023-04-16T04:41:47;52.20;;;17.30;;
37303;SDS011;23188;51.188;16.374;2023-04-16T04:45:50;20.10;;;13.70;;
37303;SDS011;23188;51.188;16.374;2023-04-16T04:49:54;23.80;;;14.20;;
37303;SDS011;23188;51.188;16.374;2023-04-16T04:53:57;23.50;;;14.10;;
37303;SDS011;23188;51.188;16.374;2023-04-16T04:58:01;24.50;;;14.50;;
37303;SDS011;23188;51.188;16.374;2023-04-16T05:02:05;20.30;;;12.90;;
37303;SDS011;23188;51.188;16.374;2023-04-16T05:06:09;29.20;;;14.30;;
37303;SDS011;23188;51.188;16.374;2023-04-16T05:10:13;31.30;;;15.20;;
37303;SDS011;23188;51.188;16.374;2023-04-16T05:14:16;18.20;;;12.30;;
37303;SDS011;23188;51.188;16.374;2023-04-16T05:18:19;20.40;;;12.80;;
37303;SDS011;23188;51.188;16.374;2023-04-16T05:22:22;17.90;;;14.00;;
37303;SDS011;23188;51.188;16.374;2023-04-16T05:26:26;27.90;;;12.90;;
37303;SDS011;23188;51.188;16.374;2023-04-16T05:30:29;21.20;;;12.40;;
37303;SDS011;23188;51.188;16.374;2023-04-16T05:34:32;20.60;;;12.40;;
37303;SDS011;23188;51.188;16.374;2023-04-16T05:38:36;24.00;;;15.20;;
37303;SDS011;23188;51.188;16.374;2023-04-16T05:42:40;28.20;;;14.80;;
37303;SDS011;23188;51.188;16.374;2023-04-16T05:46:43;30.90;;;14.90;;
37303;SDS011;23188;51.188;16.374;2023-04-16T05:50:47;20.80;;;13.00;;
37303;SDS011;23188;51.188;16.374;2023-04-16T05:54:52;18.80;;;13.10;;
37303;SDS011;23188;51.188;16.374;2023-04-16T05:58:56;17.20;;;12.90;;
37303;SDS011;23188;51.188;16.374;2023-04-16T06:02:59;23.10;;;12.70;;
37303;SDS011;23188;51.188;16.374;2023-04-16T06:07:03;22.30;;;13.20;;
37303;SDS011;23188;51.188;16.374;2023-04-16T06:11:06;19.50;;;12.20;;
37303;SDS011;23188;51.188;16.374;2023-04-16T06:15:10;15.30;;;11.60;;
37303;SDS011;23188;51.188;16.374;2023-04-16T06:19:13;22.00;;;11.80;;
37303;SDS011;23188;51.188;16.374;2023-04-16T06:23:17;20.90;;;16.10;;
37303;SDS011;23188;51.188;16.374;2023-04-16T06:27:20;20.90;;;13.00;;
37303;SDS011;23188;51.188;16.374;2023-04-16T06:31:26;24.30;;;14.00;;
37303;SDS011;23188;51.188;16.374;2023-04-16T06:35:30;24.70;;;16.40;;
37303;SDS011;23188;51.188;16.374;2023-04-16T06:39:33;26.30;;;16.90;;
37303;SDS011;23188;51.188;16.374;2023-04-16T06:43:37;17.40;;;14.40;;
37303;SDS011;23188;51.188;16.374;2023-04-16T06:47:41;24.00;;;16.60;;
37303;SDS011;23188;51.188;16.374;2023-04-16T06:51:45;29.10;;;16.60;;
37303;SDS011;23188;51.188;16.374;2023-04-16T07:12:30;33.20;;;21.10;;
37303;SDS011;23188;51.188;16.374;2023-04-16T07:16:34;33.70;;;21.70;;
37303;SDS011;23188;51.188;16.374;2023-04-16T07:20:38;39.50;;;27.60;;
37303;SDS011;23188;51.188;16.374;2023-04-16T07:24:39;46.00;;;26.30;;
37303;SDS011;23188;51.188;16.374;2023-04-16T07:28:44;33.80;;;24.30;;
37303;SDS011;23188;51.188;16.374;2023-04-16T07:32:47;32.30;;;19.70;;
37303;SDS011;23188;51.188;16.374;2023-04-16T07:36:48;29.40;;;18.20;;
37303;SDS011;23188;51.188;16.374;2023-04-16T07:40:53;42.40;;;25.10;;
37303;SDS011;23188;51.188;16.374;2023-04-16T07:44:55;29.30;;;19.60;;
37303;SDS011;23188;51.188;16.374;2023-04-16T07:48:59;24.70;;;17.00;;
37303;SDS011;23188;51.188;16.374;2023-04-16T07:53:02;24.40;;;15.10;;
37303;SDS011;23188;51.188;16.374;2023-04-16T07:57:06;24.40;;;18.10;;
37303;SDS011;23188;51.188;16.374;2023-04-16T08:05:35;27.00;;;18.60;;
37303;SDS011;23188;51.188;16.374;2023-04-16T08:09:45;23.30;;;17.90;;
37303;SDS011;23188;51.188;16.374;2023-04-16T08:13:50;26.50;;;19.00;;
37303;SDS011;23188;51.188;16.374;2023-04-16T08:17:52;25.30;;;20.70;;
37303;SDS011;23188;51.188;16.374;2023-04-16T08:26:18;37.00;;;23.60;;
37303;SDS011;23188;51.188;16.374;2023-04-16T08:30:20;43.90;;;27.70;;
37303;SDS011;23188;51.188;16.374;2023-04-16T08:34:22;46.30;;;27.00;;
37303;SDS011;23188;51.188;16.374;2023-04-16T08:38:24;44.50;;;28.30;;
37303;SDS011;23188;51.188;16.374;2023-04-16T08:42:29;38.30;;;28.40;;
37303;SDS011;23188;51.188;16.374;2023-04-16T08:46:34;50.00;;;30.70;;
37303;SDS011;23188;51.188;16.374;2023-04-16T08:50:39;46.80;;;31.30;;
37303;SDS011;23188;51.188;16.374;2023-04-16T08:54:46;42.40;;;27.30;;
37303;SDS011;23188;51.188;16.374;2023-04-16T08:59:00;39.50;;;27.60;;
37303;SDS011;23188;51.188;16.374;2023-04-16T09:03:07;38.40;;;25.90;;
37303;SDS011;23188;51.188;16.374;2023-04-16T09:07:10;39.40;;;26.50;;
37303;SDS011;23188;51.188;16.374;2023-04-16T09:11:12;35.00;;;25.40;;
37303;SDS011;23188;51.188;16.374;2023-04-16T09:20:13;40.40;;;26.30;;
37303;SDS011;23188;51.188;16.374;2023-04-16T09:24:16;39.00;;;28.40;;
37303;SDS011;23188;51.188;16.374;2023-04-16T09:33:12;42.90;;;26.20;;
37303;SDS011;23188;51.188;16.374;2023-04-16T09:41:57;36.10;;;28.10;;
37303;SDS011;23188;51.188;16.374;2023-04-16T09:45:59;37.60;;;27.10;;
37303;SDS011;23188;51.188;16.374;2023-04-16T09:50:14;33.40;;;24.00;;
37303;SDS011;23188;51.188;16.374;2023-04-16T09:54:50;35.20;;;26.00;;
37303;SDS011;23188;51.188;16.374;2023-04-16T09:58:58;30.70;;;23.30;;
37303;SDS011;23188;51.188;16.374;2023-04-16T10:03:05;38.50;;;28.60;;
37303;SDS011;23188;51.188;16.374;2023-04-16T10:07:07;29.10;;;22.20;;
37303;SDS011;23188;51.188;16.374;2023-04-16T10:11:09;33.70;;;23.10;;
37303;SDS011;23188;51.188;16.374;2023-04-16T10:15:12;39.20;;;22.90;;
37303;SDS011;23188;51.188;16.374;2023-04-16T10:19:14;29.00;;;20.70;;
37303;SDS011;23188;51.188;16.374;2023-04-16T10:23:22;30.80;;;24.10;;
37303;SDS011;23188;51.188;16.374;2023-04-16T10:35:41;19.60;;;12.50;;
37303;SDS011;23188;51.188;16.374;2023-04-16T10:39:56;20.00;;;13.70;;
37303;SDS011;23188;51.188;16.374;2023-04-16T10:44:06;20.60;;;15.80;;
37303;SDS011;23188;51.188;16.374;2023-04-16T10:48:11;24.80;;;15.10;;
37303;SDS011;23188;51.188;16.374;2023-04-16T10:52:15;16.40;;;12.20;;
37303;SDS011;23188;51.188;16.374;2023-04-16T10:56:24;21.60;;;14.40;;
37303;SDS011;23188;51.188;16.374;2023-04-16T11:00:28;17.10;;;11.90;;
37303;SDS011;23188;51.188;16.374;2023-04-16T11:04:33;13.10;;;10.30;;
37303;SDS011;23188;51.188;16.374;2023-04-16T11:08:38;11.60;;;9.40;;
37303;SDS011;23188;51.188;16.374;2023-04-16T11:12:56;12.30;;;9.30;;
37303;SDS011;23188;51.188;16.374;2023-04-16T11:17:01;7.50;;;5.90;;
37303;SDS011;23188;51.188;16.374;2023-04-16T11:21:13;13.90;;;9.50;;
37303;SDS011;23188;51.188;16.374;2023-04-16T11:29:31;14.30;;;10.50;;
37303;SDS011;23188;51.188;16.374;2023-04-16T11:33:33;11.00;;;9.30;;
37303;SDS011;23188;51.188;16.374;2023-04-16T11:37:35;14.20;;;10.10;;
37303;SDS011;23188;51.188;16.374;2023-04-16T11:41:48;14.50;;;9.50;;
37303;SDS011;23188;51.188;16.374;2023-04-16T11:46:07;10.80;;;9.10;;
37303;SDS011;23188;51.188;16.374;2023-04-16T11:50:22;8.00;;;7.20;;
37303;SDS011;23188;51.188;16.374;2023-04-16T11:54:48;9.30;;;6.70;;
37303;SDS011;23188;51.188;16.374;2023-04-16T12:03:36;7.40;;;5.70;;
37303;SDS011;23188;51.188;16.374;2023-04-16T12:08:10;8.80;;;6.50;;
37303;SDS011;23188;51.188;16.374;2023-04-16T12:17:26;8.90;;;7.20;;
37303;SDS011;23188;51.188;16.374;2023-04-16T12:21:47;6.70;;;5.00;;
